Thursday, August 25, 2016
13:16 UTC
  |  Log In   |  Register Free
Airport Search:

Heart Of Georgia Regional Airport
(KEZM)

FAA data valid effective Jul 21 2016 - Sep 15 2016 (unless otherwise noted).

 
 
 
 
 
 
 
 
 
 
 
 
 
 
Current Aviation Weather for KEZM

Weather Summary


The most recent METAR observation for EZM was updated at: 12:55 UTC
METAR for EZM is not available. Closest METAR is for
METAR

METAR KEZM 251255Z 00000KT 10SM CLR 24/22 A3021 RMK AO2 T02380219

METAR KEZM 251235Z 00000KT 10SM CLR 23/23 A3020 RMK AO2 T02250225

METAR KEZM 251215Z 00000KT 10SM CLR 22/22 A3020 RMK AO2 T02150215

METAR KEZM 251155Z 00000KT 10SM CLR 21/21 A3020 RMK AO2 T02100208 10223 20199

METAR KEZM 251135Z 00000KT 3SM BR CLR 20/20 A3019 RMK AO2 T02020202

METAR KEZM 251115Z 00000KT 1 1/4SM BR VV007 20/20 A3019 RMK AO2 T02020202

METAR KEZM 251055Z 00000KT 1/2SM FG VV005 20/20 A3019 RMK AO2 VIS 1/4V3 T02020202

METAR KEZM 251035Z 00000KT 1 3/4SM BR VV007 20/20 A3018 RMK AO2 T02020202

METAR KEZM 251015Z 00000KT 1/2SM FG VV005 20/20 A3017 RMK AO2 T02000200

METAR KAZE 251255Z 00000KT 10SM CLR 25/22 A3017 RMK AO2 T02460218

METAR KDBN 251255Z 00000KT 10SM CLR 24/20 A3021 RMK AO2

METAR KFZG 251255Z 00000KT 10SM CLR 26/23 A3020 RMK AO2 T02600231

TAF for EZM is not available.
TAF

KWRB - TAF KWRB 251300Z 2513/2619 VRB06KT 9999 FEW015 SCT045 QNH3012INS

KWRB - BECMG 2518/2519 09009KT 9999 BKN050 QNH3008INS

KWRB - BECMG 2601/2602 VRB06KT 9999 FEW050 QNH3013INS TX34/2521Z TN22/2513Z =

GlobalAir.com is loading additional information.
 Current Weather at EZM
70.0 F° (21.0 C°)

North winds at 0.0 mph
Pressure:
30.20 in
Humidity:
99%
Wind:
North at 0.0 mph
Dew Point:
69.4 F° (20.8 C°)
Visibility:
10.00 mi
EZM NOAA Radar




Find All Airport Services Find A Hotel Find A Rental Car Find A Golf Course Find A Restaurant $100 Hamburger



Airport Weather Forecast for KEZM

Translated METAR for KEZM (1255 UTC)
METAR:
KEZM 251255Z AUTO Eastman-Dodge CO, Eastman, GA (KEZM). Aug 25, 1255Z, Automated. Wind is Calm, 10 statute miles visibility, Clear Skies, Temperature 24°C, Dewpoint 22°C, Altimeter is 30.21. Remarks: automated station with precipitation discriminator hourly temp 23.8°C dewpoint 21.9°C
Conditions at:
KEZM (Heart Of Georgia Rgnl, GA) observed 1255 UTC 25 August 2016
Temperature:
70.0 F° (21.0 C°)
Dewpoint:
not reported - refer to area weather report
Pressure:
30.20 Hg
Winds:
not reported
Visibility:
10.00
Ceiling:
at least 12,000 feet AGL
Clouds:
not reported - refer to area weather report
Remarks:
site is un-manned

Translated TAF for TAF for EZM is not available. Refer to local area forecast.
FBO's on the Field
FBO Company Facility Photos Services Transportation Aviation Fuel Prices: Prices include tax
Catering Weather Repair Courtesy Rental Type 100LL JetA JetA+ MOGAS 8087
 
Heart of Georgia Regional Airport

This FBO has not yet been rated
FS:Phillips 66
Last Updated: Aug-17
Login to update fuel prices
SS:
Contact Heart of Georgia Regional AirportMore FBO Information
 
Add another FBO Facility Photos Catering Weather Repair Courtesy Rental Type 100LL JetA JetA+ MOGAS 8087
Services Transportation Aviation Fuel Prices: Prices include tax


model-print
model-print
model-print
model-print